sensor_id;sensor_type;location;lat;lon;timestamp;pressure;altitude;pressure_sealevel;temperature;humidity
33414;BME280;60055;41.884;12.534;2024-02-15T00:02:07;101815.34;;;9.97;59.65
33414;BME280;60055;41.884;12.534;2024-02-15T00:04:33;101813.47;;;10.02;59.72
33414;BME280;60055;41.884;12.534;2024-02-15T00:07:01;101816.28;;;9.91;59.64
33414;BME280;60055;41.884;12.534;2024-02-15T00:09:27;101817.00;;;10.02;59.38
33414;BME280;60055;41.884;12.534;2024-02-15T00:11:53;101814.16;;;10.14;58.99
33414;BME280;60055;41.884;12.534;2024-02-15T00:14:19;101822.09;;;10.11;58.92
33414;BME280;60055;41.884;12.534;2024-02-15T00:16:45;101817.78;;;10.07;59.20
33414;BME280;60055;41.884;12.534;2024-02-15T00:19:14;101813.47;;;10.02;59.12
33414;BME280;60055;41.884;12.534;2024-02-15T00:21:45;101818.00;;;9.94;59.00
33414;BME280;60055;41.884;12.534;2024-02-15T00:24:10;101816.00;;;10.08;58.67
33414;BME280;60055;41.884;12.534;2024-02-15T00:26:37;101811.59;;;10.10;58.56
33414;BME280;60055;41.884;12.534;2024-02-15T00:29:03;101817.06;;;9.98;59.00
33414;BME280;60055;41.884;12.534;2024-02-15T00:31:29;101815.81;;;9.63;59.98
33414;BME280;60055;41.884;12.534;2024-02-15T00:33:54;101810.69;;;9.56;59.89
33414;BME280;60055;41.884;12.534;2024-02-15T00:36:20;101813.13;;;9.69;59.60
33414;BME280;60055;41.884;12.534;2024-02-15T00:38:48;101813.13;;;9.68;59.04
33414;BME280;60055;41.884;12.534;2024-02-15T00:41:14;101806.00;;;9.74;59.86
33414;BME280;60055;41.884;12.534;2024-02-15T00:43:40;101804.09;;;9.84;59.27
33414;BME280;60055;41.884;12.534;2024-02-15T00:46:05;101804.91;;;9.89;59.12
33414;BME280;60055;41.884;12.534;2024-02-15T00:48:31;101808.47;;;9.84;58.88
33414;BME280;60055;41.884;12.534;2024-02-15T00:50:56;101817.53;;;9.69;59.56
33414;BME280;60055;41.884;12.534;2024-02-15T00:53:23;101811.25;;;9.76;59.13
33414;BME280;60055;41.884;12.534;2024-02-15T00:55:49;101805.16;;;9.72;59.06
33414;BME280;60055;41.884;12.534;2024-02-15T00:58:14;101813.97;;;9.71;59.17
33414;BME280;60055;41.884;12.534;2024-02-15T01:00:42;101809.47;;;9.78;59.40
33414;BME280;60055;41.884;12.534;2024-02-15T01:03:08;101807.69;;;9.79;58.98
33414;BME280;60055;41.884;12.534;2024-02-15T01:05:34;101811.44;;;9.64;58.74
33414;BME280;60055;41.884;12.534;2024-02-15T01:07:59;101809.72;;;9.60;58.95
33414;BME280;60055;41.884;12.534;2024-02-15T01:10:25;101804.81;;;9.36;59.15
33414;BME280;60055;41.884;12.534;2024-02-15T01:12:52;101812.53;;;9.49;59.10
33414;BME280;60055;41.884;12.534;2024-02-15T01:15:17;101808.94;;;9.55;58.50
33414;BME280;60055;41.884;12.534;2024-02-15T01:17:49;101808.06;;;9.56;58.69
33414;BME280;60055;41.884;12.534;2024-02-15T01:20:14;101807.94;;;9.62;58.26
33414;BME280;60055;41.884;12.534;2024-02-15T01:22:40;101802.59;;;9.68;58.08
33414;BME280;60055;41.884;12.534;2024-02-15T01:25:06;101796.53;;;9.60;57.86
33414;BME280;60055;41.884;12.534;2024-02-15T01:27:32;101787.72;;;9.62;57.62
33414;BME280;60055;41.884;12.534;2024-02-15T01:29:59;101793.06;;;9.58;58.18
33414;BME280;60055;41.884;12.534;2024-02-15T01:32:34;101792.19;;;9.59;58.34
33414;BME280;60055;41.884;12.534;2024-02-15T01:35:00;101784.22;;;9.62;58.26
33414;BME280;60055;41.884;12.534;2024-02-15T01:37:32;101785.06;;;9.64;57.82
33414;BME280;60055;41.884;12.534;2024-02-15T01:40:04;101781.59;;;9.60;58.22
33414;BME280;60055;41.884;12.534;2024-02-15T01:42:32;101780.56;;;9.70;57.94
33414;BME280;60055;41.884;12.534;2024-02-15T01:44:57;101784.06;;;9.72;57.91
33414;BME280;60055;41.884;12.534;2024-02-15T01:47:26;101777.16;;;9.64;58.03
33414;BME280;60055;41.884;12.534;2024-02-15T01:49:52;101782.47;;;9.62;57.89
33414;BME280;60055;41.884;12.534;2024-02-15T01:52:22;101779.59;;;9.76;57.29
33414;BME280;60055;41.884;12.534;2024-02-15T01:54:52;101785.22;;;9.53;59.15
33414;BME280;60055;41.884;12.534;2024-02-15T01:57:19;101790.88;;;9.28;60.31
33414;BME280;60055;41.884;12.534;2024-02-15T01:59:46;101773.19;;;9.36;59.90
33414;BME280;60055;41.884;12.534;2024-02-15T02:02:14;101780.22;;;9.35;59.69
33414;BME280;60055;41.884;12.534;2024-02-15T02:04:41;101777.44;;;9.46;59.16
33414;BME280;60055;41.884;12.534;2024-02-15T02:07:13;101780.28;;;9.32;58.52
33414;BME280;60055;41.884;12.534;2024-02-15T02:09:46;101771.63;;;9.19;59.35
33414;BME280;60055;41.884;12.534;2024-02-15T02:12:11;101766.91;;;9.44;59.15
33414;BME280;60055;41.884;12.534;2024-02-15T02:14:37;101767.81;;;9.42;59.07
33414;BME280;60055;41.884;12.534;2024-02-15T02:17:15;101757.25;;;9.43;59.53
33414;BME280;60055;41.884;12.534;2024-02-15T02:19:41;101764.31;;;9.40;59.52
33414;BME280;60055;41.884;12.534;2024-02-15T02:22:09;101756.56;;;9.31;59.86
33414;BME280;60055;41.884;12.534;2024-02-15T02:24:43;101761.97;;;9.20;60.18
33414;BME280;60055;41.884;12.534;2024-02-15T02:27:17;101769.00;;;9.19;60.33
33414;BME280;60055;41.884;12.534;2024-02-15T02:29:47;101769.69;;;9.35;60.12
33414;BME280;60055;41.884;12.534;2024-02-15T02:32:12;101767.16;;;9.28;60.27
33414;BME280;60055;41.884;12.534;2024-02-15T02:34:44;101763.50;;;9.38;59.98
33414;BME280;60055;41.884;12.534;2024-02-15T02:37:09;101769.69;;;9.35;59.89
33414;BME280;60055;41.884;12.534;2024-02-15T02:39:35;101764.41;;;9.34;60.24
33414;BME280;60055;41.884;12.534;2024-02-15T02:42:01;101766.31;;;9.24;60.35
33414;BME280;60055;41.884;12.534;2024-02-15T02:44:29;101765.44;;;9.25;59.96
33414;BME280;60055;41.884;12.534;2024-02-15T02:46:57;101767.38;;;9.09;59.95
33414;BME280;60055;41.884;12.534;2024-02-15T02:49:23;101770.97;;;9.05;60.00
33414;BME280;60055;41.884;12.534;2024-02-15T02:51:49;101771.91;;;9.01;59.96
33414;BME280;60055;41.884;12.534;2024-02-15T02:54:14;101777.31;;;8.89;60.03
33414;BME280;60055;41.884;12.534;2024-02-15T02:56:40;101774.53;;;9.01;59.85
33414;BME280;60055;41.884;12.534;2024-02-15T02:59:10;101768.31;;;9.08;59.69
33414;BME280;60055;41.884;12.534;2024-02-15T03:01:36;101767.47;;;9.03;59.40
33414;BME280;60055;41.884;12.534;2024-02-15T03:04:02;101776.06;;;9.16;59.00
33414;BME280;60055;41.884;12.534;2024-02-15T03:06:27;101778.63;;;9.23;59.12
33414;BME280;60055;41.884;12.534;2024-02-15T03:08:53;101780.50;;;9.15;59.37
33414;BME280;60055;41.884;12.534;2024-02-15T03:11:22;101780.91;;;8.85;60.49
33414;BME280;60055;41.884;12.534;2024-02-15T03:13:48;101786.84;;;8.99;60.20
33414;BME280;60055;41.884;12.534;2024-02-15T03:16:14;101785.06;;;9.01;60.22
33414;BME280;60055;41.884;12.534;2024-02-15T03:18:39;101779.63;;;9.15;59.47
33414;BME280;60055;41.884;12.534;2024-02-15T03:21:06;101776.94;;;9.18;59.66
33414;BME280;60055;41.884;12.534;2024-02-15T03:23:36;101765.59;;;9.13;59.46
33414;BME280;60055;41.884;12.534;2024-02-15T03:26:02;101767.56;;;8.99;60.16
33414;BME280;60055;41.884;12.534;2024-02-15T03:28:29;101771.88;;;9.03;59.86
33414;BME280;60055;41.884;12.534;2024-02-15T03:30:55;101760.44;;;9.05;60.06
33414;BME280;60055;41.884;12.534;2024-02-15T03:33:26;101766.72;;;8.95;60.36
33414;BME280;60055;41.884;12.534;2024-02-15T03:36:00;101769.53;;;8.82;61.19
33414;BME280;60055;41.884;12.534;2024-02-15T03:38:26;101765.09;;;8.85;61.22
33414;BME280;60055;41.884;12.534;2024-02-15T03:40:57;101752.81;;;8.84;61.07
33414;BME280;60055;41.884;12.534;2024-02-15T03:43:23;101760.75;;;8.81;61.85
33414;BME280;60055;41.884;12.534;2024-02-15T03:45:49;101765.31;;;8.68;61.21
33414;BME280;60055;41.884;12.534;2024-02-15T03:48:15;101764.31;;;8.76;61.37
33414;BME280;60055;41.884;12.534;2024-02-15T03:50:41;101766.22;;;8.64;61.54
33414;BME280;60055;41.884;12.534;2024-02-15T03:53:09;101774.00;;;8.75;60.91
33414;BME280;60055;41.884;12.534;2024-02-15T03:55:36;101774.03;;;8.69;60.80
33414;BME280;60055;41.884;12.534;2024-02-15T03:58:02;101780.09;;;8.77;60.96
33414;BME280;60055;41.884;12.534;2024-02-15T04:00:28;101777.34;;;8.86;60.38
33414;BME280;60055;41.884;12.534;2024-02-15T04:02:57;101772.13;;;8.85;60.38
33414;BME280;60055;41.884;12.534;2024-02-15T04:05:25;101773.13;;;8.75;60.89
33414;BME280;60055;41.884;12.534;2024-02-15T04:07:51;101781.78;;;8.83;60.25
33414;BME280;60055;41.884;12.534;2024-02-15T04:10:17;101785.38;;;8.79;60.54
33414;BME280;60055;41.884;12.534;2024-02-15T04:12:43;101780.91;;;8.82;60.30
33414;BME280;60055;41.884;12.534;2024-02-15T04:15:09;101781.84;;;8.78;60.69
33414;BME280;60055;41.884;12.534;2024-02-15T04:17:39;101777.47;;;8.77;59.95
33414;BME280;60055;41.884;12.534;2024-02-15T04:20:06;101773.19;;;8.65;60.03
33414;BME280;60055;41.884;12.534;2024-02-15T04:22:34;101774.03;;;8.69;60.21
33414;BME280;60055;41.884;12.534;2024-02-15T04:25:05;101774.94;;;8.68;60.25
33414;BME280;60055;41.884;12.534;2024-02-15T04:27:35;101774.91;;;8.69;60.16
33414;BME280;60055;41.884;12.534;2024-02-15T04:30:04;101777.50;;;8.72;59.70
33414;BME280;60055;41.884;12.534;2024-02-15T04:32:40;101782.81;;;8.71;59.82
33414;BME280;60055;41.884;12.534;2024-02-15T04:35:06;101781.09;;;8.68;59.53
33414;BME280;60055;41.884;12.534;2024-02-15T04:37:32;101780.16;;;8.72;59.32
33414;BME280;60055;41.884;12.534;2024-02-15T04:40:00;101781.09;;;8.67;59.69
33414;BME280;60055;41.884;12.534;2024-02-15T04:42:47;101773.16;;;8.70;58.96
33414;BME280;60055;41.884;12.534;2024-02-15T04:52:11;101787.28;;;8.64;59.21
33414;BME280;60055;41.884;12.534;2024-02-15T04:55:06;101789.00;;;8.67;59.09
33414;BME280;60055;41.884;12.534;2024-02-15T05:08:35;101788.97;;;8.70;59.09
33414;BME280;60055;41.884;12.534;2024-02-15T05:11:10;101788.31;;;8.51;59.49
33414;BME280;60055;41.884;12.534;2024-02-15T05:17:37;101786.72;;;8.34;60.12
33414;BME280;60055;41.884;12.534;2024-02-15T05:23:39;101785.00;;;8.27;60.16
33414;BME280;60055;41.884;12.534;2024-02-15T05:29:15;101790.38;;;8.11;60.65
33414;BME280;60055;41.884;12.534;2024-02-15T05:31:40;101783.38;;;8.13;60.58
33414;BME280;60055;41.884;12.534;2024-02-15T05:37:32;101792.34;;;7.88;61.01
33414;BME280;60055;41.884;12.534;2024-02-15T05:40:00;101784.34;;;8.02;61.10
33414;BME280;60055;41.884;12.534;2024-02-15T05:42:28;101781.63;;;8.12;61.25
33414;BME280;60055;41.884;12.534;2024-02-15T05:47:39;101795.63;;;8.17;60.03
33414;BME280;60055;41.884;12.534;2024-02-15T05:50:06;101793.03;;;8.13;60.16
33414;BME280;60055;41.884;12.534;2024-02-15T05:52:50;101798.34;;;8.07;60.22
33414;BME280;60055;41.884;12.534;2024-02-15T05:55:20;101793.19;;;7.92;60.76
33414;BME280;60055;41.884;12.534;2024-02-15T05:57:48;101801.06;;;7.96;60.29
33414;BME280;60055;41.884;12.534;2024-02-15T06:00:14;101805.53;;;7.85;60.74
33414;BME280;60055;41.884;12.534;2024-02-15T06:02:58;101810.00;;;7.77;60.43
33414;BME280;60055;41.884;12.534;2024-02-15T06:06:04;101815.22;;;7.79;60.64
33414;BME280;60055;41.884;12.534;2024-02-15T06:09:17;101817.75;;;7.94;61.44
33414;BME280;60055;41.884;12.534;2024-02-15T06:11:56;101822.78;;;8.18;60.36
33414;BME280;60055;41.884;12.534;2024-02-15T06:14:44;101821.81;;;8.33;60.25
33414;BME280;60055;41.884;12.534;2024-02-15T06:17:10;101820.94;;;8.34;60.76
33414;BME280;60055;41.884;12.534;2024-02-15T06:19:36;101830.50;;;8.42;61.50
33414;BME280;60055;41.884;12.534;2024-02-15T06:22:03;101835.94;;;8.21;60.02
33414;BME280;60055;41.884;12.534;2024-02-15T06:24:33;101832.38;;;8.25;60.29
33414;BME280;60055;41.884;12.534;2024-02-15T06:30:26;101836.38;;;8.68;62.63
33414;BME280;60055;41.884;12.534;2024-02-15T06:33:10;101834.44;;;8.84;60.06
33414;BME280;60055;41.884;12.534;2024-02-15T06:35:57;101836.00;;;9.00;58.94
33414;BME280;60055;41.884;12.534;2024-02-15T06:39:02;101838.00;;;8.82;58.74
33414;BME280;60055;41.884;12.534;2024-02-15T06:41:46;101835.59;;;8.59;58.65
33414;BME280;60055;41.884;12.534;2024-02-15T06:44:14;101839.13;;;8.58;58.61
33414;BME280;60055;41.884;12.534;2024-02-15T06:46:43;101837.28;;;8.67;58.47
33414;BME280;60055;41.884;12.534;2024-02-15T06:49:09;101840.66;;;8.79;58.33
33414;BME280;60055;41.884;12.534;2024-02-15T06:51:34;101841.50;;;8.81;57.80
33414;BME280;60055;41.884;12.534;2024-02-15T06:54:00;101854.78;;;8.71;58.32
33414;BME280;60055;41.884;12.534;2024-02-15T06:56:26;101846.75;;;8.82;58.49
33414;BME280;60055;41.884;12.534;2024-02-15T06:59:25;101859.09;;;8.79;59.26
33414;BME280;60055;41.884;12.534;2024-02-15T07:02:05;101856.53;;;8.69;58.63
33414;BME280;60055;41.884;12.534;2024-02-15T07:04:31;101862.75;;;8.62;59.12
33414;BME280;60055;41.884;12.534;2024-02-15T07:06:57;101855.75;;;8.58;59.08
33414;BME280;60055;41.884;12.534;2024-02-15T07:09:23;101857.34;;;8.76;58.58
33414;BME280;60055;41.884;12.534;2024-02-15T07:12:10;101857.28;;;8.85;58.40
33414;BME280;60055;41.884;12.534;2024-02-15T07:14:36;101856.47;;;8.79;58.44
33414;BME280;60055;41.884;12.534;2024-02-15T07:17:02;101854.59;;;8.88;58.12
33414;BME280;60055;41.884;12.534;2024-02-15T07:19:29;101855.53;;;8.83;58.22
33414;BME280;60055;41.884;12.534;2024-02-15T07:21:58;101862.66;;;8.75;58.21
33414;BME280;60055;41.884;12.534;2024-02-15T07:24:33;101860.94;;;8.69;58.58
33414;BME280;60055;41.884;12.534;2024-02-15T07:26:59;101858.13;;;8.86;58.09
33414;BME280;60055;41.884;12.534;2024-02-15T07:29:25;101863.22;;;8.99;58.00
33414;BME280;60055;41.884;12.534;2024-02-15T07:31:51;101865.59;;;9.25;57.34
33414;BME280;60055;41.884;12.534;2024-02-15T07:34:16;101870.69;;;9.37;57.08
33414;BME280;60055;41.884;12.534;2024-02-15T07:36:44;101866.06;;;9.56;56.98
33414;BME280;60055;41.884;12.534;2024-02-15T07:39:30;101860.56;;;9.71;55.87
33414;BME280;60055;41.884;12.534;2024-02-15T07:42:05;101861.19;;;9.88;55.10
33414;BME280;60055;41.884;12.534;2024-02-15T07:44:34;101852.06;;;10.07;54.52
33414;BME280;60055;41.884;12.534;2024-02-15T07:47:02;101859.75;;;10.25;53.73
33414;BME280;60055;41.884;12.534;2024-02-15T07:49:28;101860.09;;;10.55;53.49
33414;BME280;60055;41.884;12.534;2024-02-15T07:51:54;101858.91;;;10.72;52.89
33414;BME280;60055;41.884;12.534;2024-02-15T07:54:20;101860.28;;;10.92;51.71
33414;BME280;60055;41.884;12.534;2024-02-15T07:56:47;101858.50;;;11.37;50.78
33414;BME280;60055;41.884;12.534;2024-02-15T07:59:14;101852.84;;;11.53;50.31
33414;BME280;60055;41.884;12.534;2024-02-15T08:01:42;101853.34;;;11.72;49.93
33414;BME280;60055;41.884;12.534;2024-02-15T08:04:17;101850.72;;;12.09;49.18
33414;BME280;60055;41.884;12.534;2024-02-15T08:06:43;101848.84;;;12.12;48.18
33414;BME280;60055;41.884;12.534;2024-02-15T08:09:09;101844.28;;;12.19;47.32
33414;BME280;60055;41.884;12.534;2024-02-15T08:11:40;101849.59;;;12.53;46.65
33414;BME280;60055;41.884;12.534;2024-02-15T08:14:06;101849.88;;;12.41;46.75
33414;BME280;60055;41.884;12.534;2024-02-15T08:16:35;101854.28;;;12.42;46.62
33414;BME280;60055;41.884;12.534;2024-02-15T08:19:01;101861.59;;;12.66;46.89
33414;BME280;60055;41.884;12.534;2024-02-15T08:21:30;101858.94;;;12.66;47.43
33414;BME280;60055;41.884;12.534;2024-02-15T08:24:03;101859.78;;;13.00;46.33
33414;BME280;60055;41.884;12.534;2024-02-15T08:26:38;101858.78;;;13.04;46.30
33414;BME280;60055;41.884;12.534;2024-02-15T08:29:05;101863.22;;;13.04;45.09
33414;BME280;60055;41.884;12.534;2024-02-15T08:31:37;101862.56;;;12.96;44.83
33414;BME280;60055;41.884;12.534;2024-02-15T08:34:03;101853.53;;;13.01;44.76
33414;BME280;60055;41.884;12.534;2024-02-15T08:36:31;101857.50;;;13.19;44.80
33414;BME280;60055;41.884;12.534;2024-02-15T08:39:00;101854.56;;;12.97;44.12
33414;BME280;60055;41.884;12.534;2024-02-15T08:41:26;101859.69;;;13.03;44.63
33414;BME280;60055;41.884;12.534;2024-02-15T08:43:55;101857.44;;;12.88;44.82
33414;BME280;60055;41.884;12.534;2024-02-15T08:46:33;101854.81;;;13.20;43.90
33414;BME280;60055;41.884;12.534;2024-02-15T08:48:59;101849.53;;;13.19;44.07
33414;BME280;60055;41.884;12.534;2024-02-15T08:51:25;101856.81;;;13.12;43.83
33414;BME280;60055;41.884;12.534;2024-02-15T08:53:51;101857.16;;;13.60;43.48
33414;BME280;60055;41.884;12.534;2024-02-15T08:56:19;101855.22;;;13.65;43.60
33414;BME280;60055;41.884;12.534;2024-02-15T08:58:54;101857.41;;;13.80;43.30
33414;BME280;60055;41.884;12.534;2024-02-15T09:01:19;101848.47;;;14.11;44.18
33414;BME280;60055;41.884;12.534;2024-02-15T09:03:45;101854.84;;;14.05;42.87
33414;BME280;60055;41.884;12.534;2024-02-15T09:06:11;101853.81;;;14.09;42.98
33414;BME280;60055;41.884;12.534;2024-02-15T09:08:46;101854.50;;;13.88;42.26
33414;BME280;60055;41.884;12.534;2024-02-15T09:11:12;101858.22;;;13.82;42.65
33414;BME280;60055;41.884;12.534;2024-02-15T09:14:24;101844.31;;;13.16;44.11
33414;BME280;60055;41.884;12.534;2024-02-15T09:16:56;101854.78;;;13.51;43.33
33414;BME280;60055;41.884;12.534;2024-02-15T09:19:33;101857.25;;;13.57;43.88
33414;BME280;60055;41.884;12.534;2024-02-15T09:22:03;101851.91;;;13.87;42.68
33414;BME280;60055;41.884;12.534;2024-02-15T09:24:37;101846.38;;;13.93;42.27
33414;BME280;60055;41.884;12.534;2024-02-15T09:27:06;101852.19;;;14.05;41.17
33414;BME280;60055;41.884;12.534;2024-02-15T09:29:42;101851.53;;;13.71;41.94
33414;BME280;60055;41.884;12.534;2024-02-15T09:32:32;101855.31;;;13.90;42.84
33414;BME280;60055;41.884;12.534;2024-02-15T09:35:01;101849.22;;;14.14;41.38
33414;BME280;60055;41.884;12.534;2024-02-15T09:38:11;101851.22;;;14.36;40.61
33414;BME280;60055;41.884;12.534;2024-02-15T09:41:03;101843.44;;;14.56;40.71
33414;BME280;60055;41.884;12.534;2024-02-15T09:43:41;101843.91;;;14.67;39.43
33414;BME280;60055;41.884;12.534;2024-02-15T09:46:20;101851.72;;;14.96;40.54
33414;BME280;60055;41.884;12.534;2024-02-15T09:49:17;101849.97;;;14.46;40.15
33414;BME280;60055;41.884;12.534;2024-02-15T09:51:49;101857.81;;;14.75;39.71
33414;BME280;60055;41.884;12.534;2024-02-15T09:54:27;101861.34;;;15.00;38.62
33414;BME280;60055;41.884;12.534;2024-02-15T09:56:55;101855.78;;;15.06;38.30
33414;BME280;60055;41.884;12.534;2024-02-15T10:02:40;101849.63;;;15.52;39.36
33414;BME280;60055;41.884;12.534;2024-02-15T10:05:31;101849.34;;;15.60;38.80
33414;BME280;60055;41.884;12.534;2024-02-15T10:08:07;101842.84;;;15.67;38.97
33414;BME280;60055;41.884;12.534;2024-02-15T10:10:32;101839.69;;;15.79;37.64
33414;BME280;60055;41.884;12.534;2024-02-15T10:13:02;101843.53;;;15.72;37.51
33414;BME280;60055;41.884;12.534;2024-02-15T10:15:38;101834.16;;;15.62;38.49
33414;BME280;60055;41.884;12.534;2024-02-15T10:18:16;101824.00;;;15.26;38.38
33414;BME280;60055;41.884;12.534;2024-02-15T10:21:05;101830.13;;;15.52;37.60
33414;BME280;60055;41.884;12.534;2024-02-15T10:23:31;101822.44;;;15.67;39.41
33414;BME280;60055;41.884;12.534;2024-02-15T10:25:59;101824.13;;;15.92;39.81
33414;BME280;60055;41.884;12.534;2024-02-15T10:28:38;101828.34;;;15.96;37.36
33414;BME280;60055;41.884;12.534;2024-02-15T10:31:07;101824.03;;;15.93;36.87
33414;BME280;60055;41.884;12.534;2024-02-15T10:33:40;101819.25;;;15.58;37.14
33414;BME280;60055;41.884;12.534;2024-02-15T10:36:18;101811.72;;;15.91;38.57
33414;BME280;60055;41.884;12.534;2024-02-15T10:38:51;101807.72;;;15.79;38.58
33414;BME280;60055;41.884;12.534;2024-02-15T10:41:20;101803.72;;;15.91;38.86
33414;BME280;60055;41.884;12.534;2024-02-15T10:43:52;101808.56;;;15.81;36.82
33414;BME280;60055;41.884;12.534;2024-02-15T10:46:40;101801.78;;;15.51;37.84
33414;BME280;60055;41.884;12.534;2024-02-15T10:49:05;101793.94;;;15.69;37.78
33414;BME280;60055;41.884;12.534;2024-02-15T10:51:38;101787.72;;;15.69;37.11
33414;BME280;60055;41.884;12.534;2024-02-15T10:54:08;101780.31;;;15.77;35.38
33414;BME280;60055;41.884;12.534;2024-02-15T10:56:43;101772.59;;;15.71;35.37
33414;BME280;60055;41.884;12.534;2024-02-15T10:59:18;101766.34;;;15.92;36.41
33414;BME280;60055;41.884;12.534;2024-02-15T11:01:46;101769.53;;;16.02;36.65
33414;BME280;60055;41.884;12.534;2024-02-15T11:04:20;101756.94;;;16.05;34.24
33414;BME280;60055;41.884;12.534;2024-02-15T11:06:54;101767.25;;;16.13;35.79
33414;BME280;60055;41.884;12.534;2024-02-15T11:09:34;101756.00;;;16.06;34.56
33414;BME280;60055;41.884;12.534;2024-02-15T11:12:07;101751.19;;;15.94;35.71
33414;BME280;60055;41.884;12.534;2024-02-15T11:14:46;101748.78;;;15.88;36.23
33414;BME280;60055;41.884;12.534;2024-02-15T11:23:03;101731.84;;;15.89;41.46
33414;BME280;60055;41.884;12.534;2024-02-15T11:25:39;101727.63;;;16.05;38.93
33414;BME280;60055;41.884;12.534;2024-02-15T11:30:49;101716.84;;;16.28;36.47
33414;BME280;60055;41.884;12.534;2024-02-15T11:33:42;101713.44;;;16.05;33.65
33414;BME280;60055;41.884;12.534;2024-02-15T11:36:12;101710.56;;;16.09;34.20
33414;BME280;60055;41.884;12.534;2024-02-15T11:38:39;101706.03;;;16.11;34.48
33414;BME280;60055;41.884;12.534;2024-02-15T11:41:09;101707.03;;;16.09;34.28
33414;BME280;60055;41.884;12.534;2024-02-15T11:46:21;101707.69;;;16.34;35.87
33414;BME280;60055;41.884;12.534;2024-02-15T11:48:50;101705.63;;;16.41;34.56
33414;BME280;60055;41.884;12.534;2024-02-15T11:51:33;101701.50;;;16.33;34.34
33414;BME280;60055;41.884;12.534;2024-02-15T11:54:06;101695.16;;;16.16;33.68
33414;BME280;60055;41.884;12.534;2024-02-15T11:59:16;101686.63;;;16.48;34.37
33414;BME280;60055;41.884;12.534;2024-02-15T12:01:58;101690.56;;;16.60;33.82
33414;BME280;60055;41.884;12.534;2024-02-15T12:04:52;101679.50;;;16.69;34.70
33414;BME280;60055;41.884;12.534;2024-02-15T12:07:39;101681.91;;;16.73;33.67
33414;BME280;60055;41.884;12.534;2024-02-15T12:10:29;101678.91;;;16.81;32.77
33414;BME280;60055;41.884;12.534;2024-02-15T12:13:18;101666.22;;;16.86;32.27
33414;BME280;60055;41.884;12.534;2024-02-15T12:16:02;101668.03;;;16.85;30.94
33414;BME280;60055;41.884;12.534;2024-02-15T12:18:46;101651.78;;;16.90;30.82
33414;BME280;60055;41.884;12.534;2024-02-15T12:24:19;101650.06;;;17.08;32.57
33414;BME280;60055;41.884;12.534;2024-02-15T12:27:17;101651.13;;;17.22;31.86
33414;BME280;60055;41.884;12.534;2024-02-15T12:29:59;101643.59;;;17.30;30.72
33414;BME280;60055;41.884;12.534;2024-02-15T12:32:34;101644.19;;;17.37;33.50
33414;BME280;60055;41.884;12.534;2024-02-15T12:35:29;101635.31;;;17.54;33.96
33414;BME280;60055;41.884;12.534;2024-02-15T12:38:18;101628.34;;;17.68;30.92
33414;BME280;60055;41.884;12.534;2024-02-15T12:41:18;101626.22;;;17.75;29.94
33414;BME280;60055;41.884;12.534;2024-02-15T12:43:52;101625.78;;;17.48;28.04
33414;BME280;60055;41.884;12.534;2024-02-15T12:46:38;101617.13;;;17.62;27.45
33414;BME280;60055;41.884;12.534;2024-02-15T12:52:36;101615.84;;;17.86;27.95
33414;BME280;60055;41.884;12.534;2024-02-15T12:55:11;101614.66;;;17.92;26.69
33414;BME280;60055;41.884;12.534;2024-02-15T12:57:54;101600.91;;;17.99;26.41
33414;BME280;60055;41.884;12.534;2024-02-15T13:00:31;101606.00;;;18.21;26.55
33414;BME280;60055;41.884;12.534;2024-02-15T13:03:27;101595.66;;;18.30;28.62
33414;BME280;60055;41.884;12.534;2024-02-15T13:06:50;101598.91;;;18.53;28.78
33414;BME280;60055;41.884;12.534;2024-02-15T13:09:30;101584.53;;;18.05;28.41
33414;BME280;60055;41.884;12.534;2024-02-15T13:12:06;101586.47;;;18.19;30.59
33414;BME280;60055;41.884;12.534;2024-02-15T13:14:37;101575.19;;;18.29;29.09
33414;BME280;60055;41.884;12.534;2024-02-15T13:17:02;101580.88;;;18.23;28.31
33414;BME280;60055;41.884;12.534;2024-02-15T13:19:28;101574.72;;;18.06;28.58
33414;BME280;60055;41.884;12.534;2024-02-15T13:21:54;101578.66;;;17.99;29.38
33414;BME280;60055;41.884;12.534;2024-02-15T13:24:31;101575.13;;;17.98;29.04
33414;BME280;60055;41.884;12.534;2024-02-15T13:27:08;101564.44;;;17.98;26.71
33414;BME280;60055;41.884;12.534;2024-02-15T13:29:58;101561.66;;;18.17;27.86
33414;BME280;60055;41.884;12.534;2024-02-15T13:32:34;101560.19;;;18.27;27.15
33414;BME280;60055;41.884;12.534;2024-02-15T13:35:17;101555.38;;;18.33;26.21
33414;BME280;60055;41.884;12.534;2024-02-15T13:38:03;101561.75;;;17.98;26.85
33414;BME280;60055;41.884;12.534;2024-02-15T13:40:40;101562.84;;;18.11;27.34
33414;BME280;60055;41.884;12.534;2024-02-15T13:43:06;101556.63;;;18.11;26.95
33414;BME280;60055;41.884;12.534;2024-02-15T13:45:44;101562.91;;;18.10;26.79
33414;BME280;60055;41.884;12.534;2024-02-15T13:48:21;101564.38;;;18.15;29.07
33414;BME280;60055;41.884;12.534;2024-02-15T13:50:59;101558.63;;;18.23;26.20
33414;BME280;60055;41.884;12.534;2024-02-15T13:53:27;101555.53;;;18.15;27.02
33414;BME280;60055;41.884;12.534;2024-02-15T13:56:16;101552.00;;;18.14;26.17
33414;BME280;60055;41.884;12.534;2024-02-15T13:58:47;101551.66;;;18.20;28.59
33414;BME280;60055;41.884;12.534;2024-02-15T14:01:16;101553.97;;;18.11;26.78
33414;BME280;60055;41.884;12.534;2024-02-15T14:03:48;101554.88;;;17.94;26.78
33414;BME280;60055;41.884;12.534;2024-02-15T14:06:40;101554.41;;;17.86;26.58
33414;BME280;60055;41.884;12.534;2024-02-15T14:11:56;101549.78;;;17.72;27.64
33414;BME280;60055;41.884;12.534;2024-02-15T14:14:23;101548.16;;;17.70;26.74
33414;BME280;60055;41.884;12.534;2024-02-15T14:16:51;101550.28;;;17.63;28.32